Time;durP1;ratioP1;P1;durP2;ratioP2;P2;SDS_P1;SDS_P2;PMS_P1;PMS_P2;Temp;Humidity;BMP_temperature;BMP_pressure;BME280_temperature;BME280_humidity;BME280_pressure;Samples;Min_cycle;Max_cycle;Signal;HPM_P1;HPM_P2
2022/12/23 00:01:38;;;;;;;51.00;21.05;;;;;;;5.36;100.00;99903.16;7397129;19;20085;-70
2022/12/23 00:04:07;;;;;;;43.65;20.55;;;;;;;5.35;100.00;99901.44;7399757;19;20086;-70
2022/12/23 00:06:35;;;;;;;48.22;21.55;;;;;;;5.34;100.00;99897.09;7396666;19;20018;-70
2022/12/23 00:09:04;;;;;;;49.97;22.27;;;;;;;5.33;100.00;99887.56;7396535;19;20481;-70
2022/12/23 00:11:32;;;;;;;47.78;22.08;;;;;;;5.31;100.00;99881.56;7399118;19;20102;-70
2022/12/23 00:16:44;;;;;;;45.28;21.38;;;;;;;5.27;100.00;99872.94;7397340;19;20015;-70
2022/12/23 00:19:13;;;;;;;47.70;21.05;;;;;;;5.26;100.00;99867.72;7396535;19;20018;-70
2022/12/23 00:21:41;;;;;;;42.50;20.15;;;;;;;5.26;100.00;99870.34;7398341;19;20544;-70
2022/12/23 00:24:10;;;;;;;44.95;20.13;;;;;;;5.25;100.00;99859.09;7396502;19;20070;-70
2022/12/23 00:26:38;;;;;;;47.65;21.85;;;;;;;5.25;100.00;99848.69;7396536;19;20078;-69
2022/12/23 00:29:07;;;;;;;46.30;20.80;;;;;;;5.26;100.00;99849.53;7398355;19;20438;-70
2022/12/23 00:31:35;;;;;;;43.05;20.52;;;;;;;5.26;100.00;99841.72;7398336;19;20086;-70
2022/12/23 00:34:06;;;;;;;45.13;20.45;;;;;;;5.26;100.00;99849.53;7398271;19;20062;-69
2022/12/23 00:36:37;;;;;;;43.63;19.83;;;;;;;5.25;100.00;99840.03;7396483;19;20074;-69
2022/12/23 00:44:27;;;;;;;42.40;19.52;;;;;;;5.23;100.00;99834.81;7398088;19;20015;-70
2022/12/23 00:46:56;;;;;;;41.28;19.27;;;;;;;5.22;100.00;99831.38;7395788;19;20082;-70
2022/12/23 00:52:10;;;;;;;42.58;19.55;;;;;;;5.24;100.00;99826.16;7397863;19;20077;-70
2022/12/23 00:54:38;;;;;;;40.42;17.95;;;;;;;5.24;100.00;99814.91;7398095;19;20022;-70
2022/12/23 00:57:07;;;;;;;39.15;19.73;;;;;;;5.24;100.00;99820.94;7394180;19;20514;-70
2022/12/23 00:59:35;;;;;;;40.08;18.67;;;;;;;5.25;100.00;99827.88;7396477;19;20090;-70
2022/12/23 01:07:29;;;;;;;36.85;18.52;;;;;;;5.28;100.00;99806.16;7395497;19;20025;-70
2022/12/23 01:09:57;;;;;;;42.75;19.88;;;;;;;5.28;100.00;99804.44;7396692;19;20019;-70
2022/12/23 01:12:26;;;;;;;39.25;19.10;;;;;;;5.29;100.00;99811.34;7396639;19;20035;-70
2022/12/23 01:14:54;;;;;;;39.58;20.02;;;;;;;5.30;100.00;99809.59;7395286;19;20022;-70
2022/12/23 01:17:22;;;;;;;40.63;18.98;;;;;;;5.30;100.00;99809.59;7394808;19;20094;-70
2022/12/23 01:19:53;;;;;;;40.35;18.88;;;;;;;5.30;100.00;99807.00;7396715;19;20382;-70
2022/12/23 01:22:22;;;;;;;41.03;19.23;;;;;;;5.30;100.00;99810.47;7396412;19;20086;-70
2022/12/23 01:24:50;;;;;;;43.03;18.75;;;;;;;5.31;100.00;99806.97;7396491;19;20019;-70
2022/12/23 01:27:19;;;;;;;39.92;17.30;;;;;;;5.32;100.00;99807.81;7394883;19;20086;-70
2022/12/23 01:29:47;;;;;;;40.03;19.33;;;;;;;5.32;100.00;99806.09;7396507;19;20039;-70
2022/12/23 01:32:16;;;;;;;42.15;19.00;;;;;;;5.31;100.00;99798.31;7396393;19;20018;-70
2022/12/23 01:34:44;;;;;;;43.00;19.77;;;;;;;5.33;100.00;99800.03;7395851;19;20409;-70
2022/12/23 01:37:15;;;;;;;44.67;18.88;;;;;;;5.34;100.00;99793.91;7394401;19;20078;-69
2022/12/23 01:39:44;;;;;;;41.63;19.75;;;;;;;5.35;100.00;99797.38;7396558;19;20026;-69
2022/12/23 01:44:59;;;;;;;42.63;19.30;;;;;;;5.37;100.00;99788.69;7395587;19;20010;-70
2022/12/23 01:47:35;;;;;;;46.55;21.10;;;;;;;5.38;100.00;99780.00;7394284;19;20010;-69
2022/12/23 01:50:09;;;;;;;42.80;20.45;;;;;;;5.38;100.00;99777.41;7395620;19;20544;-69
2022/12/23 01:52:44;;;;;;;;;;;;;;;5.39;100.00;99775.66;7396885;19;20090;-69
2022/12/23 01:55:13;;;;;;;47.83;20.30;;;;;;;5.39;100.00;99771.28;7396083;19;19927;-69
2022/12/23 01:57:44;;;;;;;49.75;21.42;;;;;;;5.41;100.00;99775.59;7393908;19;20023;-70
2022/12/23 02:05:49;;;;;;;47.80;20.45;;;;;;;5.42;100.00;99756.53;7394833;19;20014;-70
2022/12/23 02:11:35;;;;;;;48.63;20.93;;;;;;;5.44;100.00;99746.97;7395522;19;20007;-68
2022/12/23 02:17:21;;;;;;;52.60;20.70;;;;;;;5.44;100.00;99740.00;7389724;19;20017;-69
2022/12/23 02:20:32;;;;;;;62.08;22.77;;;;;;;5.52;100.00;99747.69;7395667;19;20027;-70
2022/12/23 02:23:38;;;;;;;53.28;20.58;;;;;;;5.53;100.00;99742.47;7394873;19;20027;-69
2022/12/23 02:26:31;;;;;;;52.58;21.48;;;;;;;5.57;100.00;99743.25;7394231;19;20438;-69
2022/12/23 02:29:22;;;;;;;55.50;20.48;;;;;;;5.61;100.00;99746.66;7394840;19;20022;-69
2022/12/23 02:31:59;;;;;;;59.10;20.70;;;;;;;5.63;100.00;99740.53;7394387;19;20031;-69
2022/12/23 02:34:37;;;;;;;60.53;21.13;;;;;;;5.66;100.00;99729.22;7395040;19;20074;-69
2022/12/23 02:37:10;;;;;;;51.78;20.15;;;;;;;5.69;100.00;99727.44;7392640;19;20035;-69
2022/12/23 02:39:43;;;;;;;54.75;20.10;;;;;;;5.70;100.00;99721.34;7394982;19;20074;-69
2022/12/23 02:42:17;;;;;;;57.60;21.63;;;;;;;5.73;100.00;99717.81;7394014;19;20488;-69
2022/12/23 02:44:49;;;;;;;61.40;22.45;;;;;;;5.76;100.00;99716.91;7392173;19;20074;-68
2022/12/23 02:47:24;;;;;;;58.88;21.05;;;;;;;5.78;100.00;99721.19;7391940;19;20506;-68
2022/12/23 02:49:56;;;;;;;57.00;20.52;;;;;;;5.80;100.00;99721.16;7392404;19;20487;-68
2022/12/23 02:52:31;;;;;;;56.83;21.42;;;;;;;5.82;100.00;99722.00;7391901;19;20521;-69
2022/12/23 02:55:02;;;;;;;56.45;21.38;;;;;;;5.84;100.00;99720.25;7394354;19;20031;-69
2022/12/23 02:57:37;;;;;;;50.90;21.25;;;;;;;5.85;100.00;99715.00;7391758;19;20081;-68
2022/12/23 03:00:07;;;;;;;53.03;19.95;;;;;;;5.87;100.00;99708.00;7394468;19;20035;-68
2022/12/23 03:02:41;;;;;;;49.20;20.40;;;;;;;5.89;100.00;99713.19;7392293;19;20015;-69
2022/12/23 03:05:24;;;;;;;;;;;;;;;5.90;100.00;99712.28;7394718;19;20032;-68
2022/12/23 03:07:58;;;;;;;53.83;20.15;;;;;;;5.89;100.00;99715.81;7391803;19;20315;-69
2022/12/23 03:10:34;;;;;;;46.80;19.80;;;;;;;5.90;100.00;99714.03;7394309;19;20019;-68
2022/12/23 03:13:11;;;;;;;44.55;19.52;;;;;;;5.90;100.00;99709.69;7394010;19;20022;-70
2022/12/23 03:15:48;;;;;;;46.78;19.52;;;;;;;5.94;100.00;99708.75;7393191;19;20018;-69
2022/12/23 03:18:30;;;;;;;43.42;18.65;;;;;;;5.96;100.00;99711.31;7390912;19;20007;-69
2022/12/23 03:21:05;;;;;;;38.45;18.88;;;;;;;5.97;100.00;99703.47;7394445;19;20014;-69
2022/12/23 03:23:40;;;;;;;42.97;18.48;;;;;;;5.97;100.00;99705.25;7401174;19;20075;-70
2022/12/23 03:26:13;;;;;;;46.10;19.35;;;;;;;5.99;100.00;99709.56;7401819;19;20035;-70
2022/12/23 03:28:46;;;;;;;44.10;18.95;;;;;;;6.00;100.00;99705.19;7400599;19;20039;-70
2022/12/23 03:31:20;;;;;;;41.72;17.48;;;;;;;6.01;100.00;99699.94;7400851;19;20085;-69
2022/12/23 03:33:56;;;;;;;44.08;18.17;;;;;;;6.02;100.00;99706.03;7400714;19;20078;-69
2022/12/23 03:36:29;;;;;;;37.08;16.83;;;;;;;6.03;100.00;99703.41;7397366;19;20101;-69
2022/12/23 03:38:58;;;;;;;41.13;18.70;;;;;;;6.05;100.00;99707.72;7400509;19;20018;-69
2022/12/23 03:41:32;;;;;;;39.55;17.45;;;;;;;6.05;100.00;99699.91;7399907;19;20023;-69
2022/12/23 03:44:05;;;;;;;40.58;17.42;;;;;;;6.07;100.00;99709.41;7400350;19;20015;-69
2022/12/23 03:46:41;;;;;;;39.95;17.33;;;;;;;6.09;100.00;99701.56;7398339;19;20090;-69
2022/12/23 03:49:17;;;;;;;41.35;17.30;;;;;;;6.10;100.00;99698.06;7397887;19;20022;-69
2022/12/23 03:51:52;;;;;;;39.28;17.17;;;;;;;6.11;100.00;99689.38;7399529;19;20426;-69
2022/12/23 03:54:25;;;;;;;41.80;17.58;;;;;;;6.13;100.00;99700.59;7397683;19;20081;-69
2022/12/23 03:57:00;;;;;;;41.43;17.03;;;;;;;6.12;100.00;99694.53;7397326;19;20483;-69
2022/12/23 03:59:32;;;;;;;37.30;16.90;;;;;;;6.13;100.00;99693.66;7400002;19;20022;-69
2022/12/23 04:02:09;;;;;;;43.03;18.30;;;;;;;6.13;100.00;99691.06;7396540;19;20506;-70
2022/12/23 04:04:55;;;;;;;39.33;17.15;;;;;;;6.14;100.00;99694.50;7399408;19;20085;-70
2022/12/23 04:07:27;;;;;;;37.70;17.83;;;;;;;6.14;100.00;99689.28;7396446;19;20074;-70
2022/12/23 04:09:56;;;;;;;35.60;17.10;;;;;;;6.13;100.00;99680.63;7396912;19;20428;-69
2022/12/23 04:12:26;;;;;;;39.55;17.23;;;;;;;6.14;100.00;99684.97;7398355;19;20018;-70
2022/12/23 04:14:55;;;;;;;40.60;17.40;;;;;;;6.14;100.00;99690.19;7396680;19;20026;-70
2022/12/23 04:17:24;;;;;;;44.30;17.13;;;;;;;6.13;100.00;99693.66;7398344;19;20093;-67
2022/12/23 04:19:55;;;;;;;39.70;17.23;;;;;;;6.13;100.00;99688.44;7398857;19;20078;-69
2022/12/23 04:22:23;;;;;;;37.78;17.23;;;;;;;6.13;100.00;99683.25;7398414;19;20074;-70
2022/12/23 04:24:52;;;;;;;39.67;17.63;;;;;;;6.14;100.00;99681.47;7398697;19;20026;-69
2022/12/23 04:27:20;;;;;;;37.42;17.98;;;;;;;6.13;100.00;99680.63;7395969;19;20073;-69
2022/12/23 04:29:49;;;;;;;38.70;18.38;;;;;;;6.14;100.00;99684.09;7395886;19;20502;-69
2022/12/23 04:32:17;;;;;;;41.38;17.38;;;;;;;6.14;100.00;99676.28;7398115;19;20153;-69
2022/12/23 04:34:46;;;;;;;40.80;17.88;;;;;;;6.14;100.00;99684.09;7397918;19;20086;-69
2022/12/23 04:37:17;;;;;;;41.65;17.13;;;;;;;6.13;100.00;99687.56;7396275;19;20022;-69
2022/12/23 04:39:45;;;;;;;34.03;17.02;;;;;;;6.13;100.00;99679.75;7398390;19;20093;-69
2022/12/23 04:42:13;;;;;;;36.20;17.52;;;;;;;6.13;100.00;99688.44;7395976;19;20078;-70
2022/12/23 04:44:42;;;;;;;32.30;15.52;;;;;;;6.13;100.00;99679.75;7397431;19;20501;-70
2022/12/23 04:47:10;;;;;;;37.58;16.70;;;;;;;6.11;100.00;99677.19;7395612;19;20082;-69
2022/12/23 04:49:39;;;;;;;38.78;16.17;;;;;;;6.12;100.00;99680.69;7395782;19;20018;-70
2022/12/23 04:52:08;;;;;;;37.17;16.25;;;;;;;6.14;100.00;99681.47;7397696;19;20098;-70
2022/12/23 04:54:39;;;;;;;33.33;15.57;;;;;;;6.14;100.00;99690.19;7397512;19;20019;-70
2022/12/23 04:57:07;;;;;;;40.90;16.52;;;;;;;6.15;100.00;99680.59;7395849;19;20088;-70
2022/12/23 04:59:36;;;;;;;33.83;16.27;;;;;;;6.16;100.00;99687.53;7396870;19;20082;-70
2022/12/23 05:02:04;;;;;;;39.88;16.40;;;;;;;6.17;100.00;99684.03;7395336;19;20074;-69
2022/12/23 05:04:32;;;;;;;33.95;14.95;;;;;;;6.18;100.00;99681.41;7397283;19;20110;-70
2022/12/23 05:07:01;;;;;;;34.35;16.08;;;;;;;6.19;100.00;99682.25;7396419;19;20082;-69
2022/12/23 05:09:29;;;;;;;32.85;14.27;;;;;;;6.18;100.00;99689.22;7395766;19;20089;-69
2022/12/23 05:12:00;;;;;;;31.52;15.00;;;;;;;6.21;100.00;99693.50;7395273;19;20078;-70
2022/12/23 05:14:29;;;;;;;26.05;13.75;;;;;;;6.22;100.00;99697.81;7397209;19;20090;-70
2022/12/23 05:16:57;;;;;;;31.48;13.63;;;;;;;6.24;100.00;99698.63;7395592;19;20017;-70
2022/12/23 05:19:26;;;;;;;34.40;15.07;;;;;;;6.25;100.00;99695.13;7396660;19;20021;-70
2022/12/23 05:21:54;;;;;;;31.05;13.43;;;;;;;6.26;100.00;99702.06;7397096;19;20106;-70
2022/12/23 05:24:23;;;;;;;27.73;12.38;;;;;;;6.28;100.00;99702.91;7394962;19;20082;-70
2022/12/23 05:26:51;;;;;;;26.23;12.30;;;;;;;6.29;100.00;99704.63;7394762;19;20019;-69
2022/12/23 05:29:22;;;;;;;27.50;11.88;;;;;;;6.32;100.00;99699.34;7396256;19;20094;-70
2022/12/23 05:31:51;;;;;;;27.25;11.75;;;;;;;6.36;100.00;99703.59;7396424;19;20022;-70
2022/12/23 05:34:19;;;;;;;25.80;10.95;;;;;;;6.38;100.00;99700.94;7396161;19;20431;-70
2022/12/23 05:36:47;;;;;;;24.33;11.27;;;;;;;6.42;100.00;99705.22;7395026;19;20074;-70
2022/12/23 05:39:16;;;;;;;22.70;10.75;;;;;;;6.46;100.00;99706.03;7393944;19;20540;-69
2022/12/23 05:41:44;;;;;;;24.23;10.82;;;;;;;6.49;100.00;99705.94;7396133;19;20151;-70
2022/12/23 05:44:13;;;;;;;25.88;10.57;;;;;;;6.52;100.00;99703.25;7392487;19;20014;-69
2022/12/23 05:46:44;;;;;;;29.80;11.63;;;;;;;6.56;100.00;99706.66;7394417;19;20021;-69
2022/12/23 05:49:12;;;;;;;30.33;11.60;;;;;;;6.57;100.00;99709.25;7394011;19;20070;-69
2022/12/23 05:51:41;;;;;;;25.17;11.25;;;;;;;6.59;100.00;99723.09;7395528;19;20085;-70
2022/12/23 05:54:09;;;;;;;23.88;11.55;;;;;;;6.62;100.00;99716.94;7395614;19;20018;-69
2022/12/23 05:56:38;;;;;;;27.45;11.55;;;;;;;6.63;100.00;99718.66;7394368;19;20077;-69
2022/12/23 05:59:06;;;;;;;25.27;11.68;;;;;;;6.64;100.00;99718.63;7395418;19;20023;-70
2022/12/23 06:01:35;;;;;;;26.38;11.32;;;;;;;6.66;100.00;99723.81;7393529;19;20421;-70
2022/12/23 06:04:06;;;;;;;27.60;10.93;;;;;;;6.67;100.00;99725.53;7395093;19;20070;-71
2022/12/23 06:06:34;;;;;;;23.98;11.73;;;;;;;6.68;100.00;99722.91;7393631;19;20088;-70
2022/12/23 06:09:03;;;;;;;25.90;11.10;;;;;;;6.68;100.00;99725.50;7393384;19;20081;-70
2022/12/23 06:11:31;;;;;;;29.13;11.75;;;;;;;6.69;100.00;99726.34;7395184;19;20036;-70
2022/12/23 06:14:01;;;;;;;27.73;11.52;;;;;;;6.71;100.00;99718.50;7394893;19;20099;-70
2022/12/23 06:16:29;;;;;;;28.15;14.05;;;;;;;6.72;100.00;99723.66;7393481;19;20496;-70
2022/12/23 06:18:58;;;;;;;23.65;11.68;;;;;;;6.74;100.00;99721.06;7394943;19;20014;-71
2022/12/23 06:21:29;;;;;;;27.60;11.55;;;;;;;6.75;100.00;99734.03;7394932;19;20078;-70
2022/12/23 06:23:57;;;;;;;25.67;12.30;;;;;;;6.76;100.00;99730.56;7395201;19;20077;-70
2022/12/23 06:26:26;;;;;;;26.65;12.38;;;;;;;6.78;100.00;99735.72;7393073;19;20391;-70
2022/12/23 06:28:54;;;;;;;28.00;11.70;;;;;;;6.78;100.00;99730.50;7394201;19;20082;-70
2022/12/23 06:31:23;;;;;;;26.05;11.43;;;;;;;6.80;100.00;99728.75;7394463;19;20074;-69
2022/12/23 06:33:51;;;;;;;28.55;12.15;;;;;;;6.82;100.00;99734.75;7394240;19;20553;-70
2022/12/23 06:36:20;;;;;;;27.40;12.20;;;;;;;6.82;100.00;99732.16;7393731;19;20082;-69
2022/12/23 06:38:51;;;;;;;27.27;12.63;;;;;;;6.83;100.00;99739.09;7391997;19;20081;-70
2022/12/23 06:41:19;;;;;;;25.95;12.23;;;;;;;6.84;100.00;99741.66;7394163;19;20559;-70
2022/12/23 06:43:48;;;;;;;30.25;12.77;;;;;;;6.86;100.00;99744.22;7394273;19;20036;-69
2022/12/23 06:46:16;;;;;;;33.65;13.13;;;;;;;6.88;100.00;99744.22;7392954;19;20015;-69
2022/12/23 06:48:44;;;;;;;27.60;11.68;;;;;;;6.88;100.00;99750.28;7391691;19;20087;-69
2022/12/23 06:51:13;;;;;;;30.73;14.05;;;;;;;6.88;100.00;99758.09;7391663;19;20078;-69
2022/12/23 06:53:42;;;;;;;30.85;13.07;;;;;;;6.91;100.00;99757.16;7393991;19;20018;-69
2022/12/23 06:56:13;;;;;;;27.27;12.27;;;;;;;6.91;100.00;99759.78;7392887;19;20434;-70
2022/12/23 06:58:41;;;;;;;27.75;12.05;;;;;;;6.93;100.00;99769.28;7401008;19;20569;-71
2022/12/23 07:01:10;;;;;;;26.42;11.55;;;;;;;6.96;100.00;99776.16;7397634;19;20070;-71
2022/12/23 07:03:38;;;;;;;27.95;12.20;;;;;;;6.95;100.00;99772.72;7401051;19;20070;-70
2022/12/23 07:06:07;;;;;;;25.25;11.60;;;;;;;6.97;100.00;99780.50;7397460;19;20085;-70
2022/12/23 07:08:43;;;;;;;24.55;11.40;;;;;;;6.99;100.00;99782.19;7398355;19;20026;-70
2022/12/23 07:11:14;;;;;;;32.70;12.05;;;;;;;7.00;100.00;99780.41;7398169;19;20097;-70
2022/12/23 07:13:42;;;;;;;31.10;11.80;;;;;;;7.01;100.00;99783.00;7398867;19;20082;-70
2022/12/23 07:16:11;;;;;;;26.55;11.50;;;;;;;7.03;100.00;99789.91;7398793;19;20073;-70
2022/12/23 07:18:39;;;;;;;23.30;10.40;;;;;;;7.02;100.00;99783.84;7399883;19;20501;-70
2022/12/23 07:21:08;;;;;;;23.20;10.98;;;;;;;7.04;100.00;99789.91;7396914;19;20090;-70
2022/12/23 07:23:36;;;;;;;19.33;10.45;;;;;;;7.06;100.00;99790.72;7399917;19;20018;-70
2022/12/23 07:26:05;;;;;;;26.42;10.40;;;;;;;7.07;100.00;99796.81;7398704;19;20099;-69
2022/12/23 07:28:36;;;;;;;22.52;10.63;;;;;;;7.08;100.00;99801.13;7397873;19;20074;-70
2022/12/23 07:31:07;;;;;;;23.70;10.48;;;;;;;7.08;100.00;99803.75;7396997;19;20018;-70
2022/12/23 07:33:35;;;;;;;23.98;10.20;;;;;;;7.08;100.00;99803.75;7400436;19;20082;-70
2022/12/23 07:36:04;;;;;;;23.42;10.93;;;;;;;7.08;100.00;99806.34;7398497;19;20023;-70
2022/12/23 07:38:38;;;;;;;21.10;10.25;;;;;;;7.08;100.00;99809.81;7399272;19;20521;-70
2022/12/23 07:41:07;;;;;;;28.17;10.18;;;;;;;7.07;100.00;99808.09;7399172;19;20560;-70
2022/12/23 07:43:38;;;;;;;24.70;10.27;;;;;;;7.06;100.00;99806.34;7400191;19;20077;-70
2022/12/23 07:46:11;;;;;;;25.88;11.30;;;;;;;7.06;100.00;99805.50;7397538;19;20035;-70
2022/12/23 07:48:42;;;;;;;21.85;9.68;;;;;;;7.05;100.00;99809.00;7397486;19;20032;-70
2022/12/23 07:51:11;;;;;;;22.75;10.27;;;;;;;7.03;100.00;99808.19;7399155;19;20029;-71
2022/12/23 07:53:39;;;;;;;26.45;10.88;;;;;;;7.03;100.00;99813.38;7398621;19;20422;-70
2022/12/23 07:56:08;;;;;;;24.95;10.55;;;;;;;7.01;100.00;99814.31;7396381;19;20082;-69
2022/12/23 07:58:39;;;;;;;29.85;11.68;;;;;;;7.01;100.00;99810.81;7398283;19;20090;-71
2022/12/23 08:01:09;;;;;;;26.83;11.15;;;;;;;7.03;100.00;99808.19;7398732;19;20010;-70
2022/12/23 08:03:38;;;;;;;31.10;11.27;;;;;;;7.01;100.00;99810.81;7398412;19;20500;-70
2022/12/23 08:06:11;;;;;;;29.40;11.15;;;;;;;7.02;100.00;99820.38;7397250;19;20015;-71
2022/12/23 08:08:40;;;;;;;28.75;12.35;;;;;;;7.01;100.00;99824.75;7396341;19;20019;-71
2022/12/23 08:11:11;;;;;;;28.38;11.90;;;;;;;7.01;100.00;99829.97;7398420;19;20023;-70
2022/12/23 08:13:44;;;;;;;27.33;11.65;;;;;;;7.01;100.00;99826.47;7398080;19;20027;-69
2022/12/23 08:16:13;;;;;;;26.45;10.85;;;;;;;7.03;100.00;99826.44;7397100;19;20015;-71
2022/12/23 08:18:43;;;;;;;25.98;11.07;;;;;;;7.04;100.00;99829.03;7397478;19;20023;-70
2022/12/23 08:21:16;;;;;;;30.20;11.63;;;;;;;7.04;100.00;99821.22;7397773;19;20022;-71
2022/12/23 08:23:45;;;;;;;24.73;10.68;;;;;;;7.05;100.00;99824.66;7395156;19;20015;-71
2022/12/23 08:26:16;;;;;;;30.25;10.93;;;;;;;7.06;100.00;99826.38;7395425;19;20019;-72
2022/12/23 08:28:47;;;;;;;30.13;11.75;;;;;;;7.07;100.00;99818.50;7397156;19;20011;-71
2022/12/23 08:31:18;;;;;;;35.40;12.07;;;;;;;7.10;100.00;99828.03;7395358;19;20502;-72
2022/12/23 08:33:49;;;;;;;28.88;11.88;;;;;;;7.10;100.00;99822.81;7395201;19;20006;-70
2022/12/23 08:36:19;;;;;;;28.00;12.73;;;;;;;7.13;100.00;99833.19;7396254;19;20036;-71
2022/12/23 08:38:48;;;;;;;28.63;12.77;;;;;;;7.13;100.00;99831.44;7395970;19;20082;-71
2022/12/23 08:41:19;;;;;;;29.73;13.13;;;;;;;7.14;100.00;99834.88;7396697;19;20342;-72
2022/12/23 08:43:50;;;;;;;30.85;12.65;;;;;;;7.14;100.00;99827.94;7397017;19;20489;-71
2022/12/23 08:46:18;;;;;;;35.20;13.02;;;;;;;7.17;100.00;99829.59;7395010;19;20517;-71
2022/12/23 08:48:47;;;;;;;31.80;12.57;;;;;;;7.20;100.00;99833.91;7395673;19;20518;-71
2022/12/23 08:51:18;;;;;;;30.52;12.30;;;;;;;7.19;100.00;99838.28;7396823;19;20014;-71
2022/12/23 08:53:46;;;;;;;27.52;11.82;;;;;;;7.20;100.00;99834.75;7394760;19;20093;-71
2022/12/23 08:56:18;;;;;;;26.08;11.48;;;;;;;7.21;100.00;99841.69;7395882;19;20086;-71
2022/12/23 08:58:51;;;;;;;27.35;12.23;;;;;;;7.23;100.00;99849.47;7397218;19;20022;-72
2022/12/23 09:01:21;;;;;;;29.83;11.80;;;;;;;7.24;100.00;99856.41;7395990;19;20093;-72
2022/12/23 09:03:50;;;;;;;27.98;10.98;;;;;;;7.25;100.00;99866.81;7395843;19;20086;-71
2022/12/23 09:06:21;;;;;;;23.63;11.23;;;;;;;7.25;100.00;99869.41;7395127;19;20483;-72
2022/12/23 09:08:50;;;;;;;26.85;11.65;;;;;;;7.27;100.00;99867.66;7395665;19;20134;-70
2022/12/23 09:11:21;;;;;;;27.33;11.13;;;;;;;7.27;100.00;99869.41;7395807;19;20095;-71
2022/12/23 09:13:52;;;;;;;30.25;11.73;;;;;;;7.23;100.00;99876.44;7394980;19;20094;-70
2022/12/23 09:16:21;;;;;;;22.20;11.23;;;;;;;7.29;100.00;99878.03;7395256;19;20018;-70
2022/12/23 09:18:49;;;;;;;24.88;11.38;;;;;;;7.27;100.00;99878.06;7393712;19;20078;-71
2022/12/23 09:21:22;;;;;;;30.52;11.32;;;;;;;7.28;100.00;99878.94;7395076;19;20426;-70
2022/12/23 09:23:51;;;;;;;43.58;20.27;;;;;;;7.32;100.00;99885.81;7396174;19;20014;-71
2022/12/23 09:26:21;;;;;;;30.15;13.50;;;;;;;7.35;100.00;99890.94;7394147;19;20035;-71
2022/12/23 09:28:53;;;;;;;29.77;11.23;;;;;;;7.36;100.00;99894.44;7394872;19;20083;-71
2022/12/23 09:31:23;;;;;;;31.77;12.15;;;;;;;7.38;100.00;99900.47;7394154;19;20014;-71
2022/12/23 09:33:54;;;;;;;30.15;12.30;;;;;;;7.38;100.00;99898.72;7395292;19;20481;-71
2022/12/23 09:36:23;;;;;;;29.70;13.27;;;;;;;7.39;100.00;99907.41;7394825;19;20018;-70
2022/12/23 09:38:56;;;;;;;29.77;12.70;;;;;;;7.41;100.00;99909.09;7395397;19;20021;-69
2022/12/23 09:41:36;;;;;;;31.20;13.48;;;;;;;7.43;100.00;99916.88;7394969;19;20011;-71
2022/12/23 09:44:20;;;;;;;33.08;14.48;;;;;;;7.45;100.00;99918.56;7393629;19;20014;-72
2022/12/23 09:46:53;;;;;;;35.63;13.65;;;;;;;7.47;100.00;99915.94;7393627;19;20074;-70
2022/12/23 09:49:23;;;;;;;29.35;13.77;;;;;;;7.50;100.00;99932.38;7393314;19;20078;-70
2022/12/23 09:51:55;;;;;;;32.83;14.27;;;;;;;7.54;100.00;99927.09;7395043;19;20090;-70
2022/12/23 09:54:27;;;;;;;29.60;13.70;;;;;;;7.56;100.00;99927.94;7393456;19;20090;-70
2022/12/23 09:56:59;;;;;;;31.17;14.32;;;;;;;7.59;100.00;99933.06;7392517;19;20363;-71
2022/12/23 09:59:47;;;;;;;34.45;14.50;;;;;;;7.61;100.00;99941.72;7394819;19;20415;-71
2022/12/23 10:02:24;;;;;;;31.27;13.48;;;;;;;7.63;100.00;99937.31;7393389;19;20035;-71
2022/12/23 10:05:06;;;;;;;33.53;15.05;;;;;;;7.66;100.00;99937.25;7394818;19;20081;-71
2022/12/23 10:07:38;;;;;;;30.90;13.02;;;;;;;7.68;100.00;99945.06;7394219;19;20028;-70
2022/12/23 10:10:16;;;;;;;32.17;14.07;;;;;;;7.69;100.00;99941.56;7394331;19;20489;-70
2022/12/23 10:12:51;;;;;;;39.42;14.45;;;;;;;7.69;100.00;99941.56;7393827;19;20524;-70
2022/12/23 10:15:31;;;;;;;31.52;13.55;;;;;;;7.67;100.00;99938.97;7391848;19;20078;-72
2022/12/23 10:18:06;;;;;;;36.83;15.27;;;;;;;7.68;100.00;99939.84;7393777;19;20023;-71
2022/12/23 10:20:41;;;;;;;39.40;18.05;;;;;;;7.69;100.00;99933.72;7394274;19;20569;-70
2022/12/23 10:23:18;;;;;;;43.70;18.85;;;;;;;7.67;100.00;99931.13;7394698;19;20037;-71
2022/12/23 10:25:52;;;;;;;45.67;19.13;;;;;;;7.70;100.00;99944.13;7393501;19;20022;-70
2022/12/23 10:28:21;;;;;;;41.38;18.13;;;;;;;7.69;100.00;99949.38;7393995;19;20084;-70
2022/12/23 10:31:03;;;;;;;56.78;28.23;;;;;;;7.68;100.00;99948.50;7397807;19;20039;-71
2022/12/23 10:33:44;;;;;;;39.50;17.58;;;;;;;7.65;100.00;99946.84;7401169;19;20442;-71
2022/12/23 10:36:20;;;;;;;38.85;18.77;;;;;;;7.61;100.00;99945.19;7399753;19;20435;-70
2022/12/23 10:38:57;;;;;;;35.67;17.02;;;;;;;7.56;100.00;99941.81;7401571;19;20031;-71
2022/12/23 10:41:37;;;;;;;35.72;16.20;;;;;;;7.53;100.00;99934.03;7400866;19;20078;-71
2022/12/23 10:44:28;;;;;;;32.03;15.15;;;;;;;7.53;100.00;99928.81;7401808;19;20023;-71
2022/12/23 10:47:10;;;;;;;30.58;14.45;;;;;;;7.48;100.00;99938.50;7399212;19;20123;-71
2022/12/23 10:49:49;;;;;;;32.58;15.10;;;;;;;7.45;100.00;99938.59;7399722;19;20022;-72
2022/12/23 10:52:21;;;;;;;31.20;15.60;;;;;;;7.43;100.00;99940.38;7401100;19;20411;-70
2022/12/23 10:54:49;;;;;;;32.58;15.43;;;;;;;7.42;100.00;99941.25;7401804;19;20089;-69
2022/12/23 10:57:22;;;;;;;35.90;17.95;;;;;;;7.43;100.00;99942.97;7399279;19;20078;-72
2022/12/23 10:59:50;;;;;;;38.95;19.17;;;;;;;7.44;100.00;99949.91;7401873;19;20025;-72
2022/12/23 11:02:46;;;;;;;28.25;16.08;;;;;;;7.43;100.00;99950.81;7399320;19;20010;-71
2022/12/23 11:05:18;;;;;;;35.67;16.42;;;;;;;7.45;100.00;99949.03;7400419;19;20090;-70
2022/12/23 11:07:47;;;;;;;26.52;13.90;;;;;;;7.46;100.00;99951.59;7397468;19;20506;-70
2022/12/23 11:10:20;;;;;;;23.85;13.48;;;;;;;7.47;100.00;99945.50;7397686;19;20029;-70
2022/12/23 11:12:50;;;;;;;24.73;13.45;;;;;;;7.49;100.00;99955.91;7401239;19;20090;-71
2022/12/23 11:15:34;;;;;;;23.95;14.27;;;;;;;7.48;100.00;99954.16;7400357;19;20070;-70
2022/12/23 11:18:07;;;;;;;25.45;14.77;;;;;;;7.52;100.00;99960.19;7401043;19;20022;-72
2022/12/23 11:20:37;;;;;;;24.42;14.98;;;;;;;7.53;100.00;99962.75;7399610;19;20031;-73
2022/12/23 11:23:08;;;;;;;23.13;12.98;;;;;;;7.54;100.00;99961.88;7399858;19;20074;-71
2022/12/23 11:25:40;;;;;;;20.85;14.38;;;;;;;7.59;100.00;99964.41;7399664;19;20018;-72
2022/12/23 11:28:14;;;;;;;20.63;14.10;;;;;;;7.60;100.00;99959.13;7400466;19;20082;-71
2022/12/23 11:30:50;;;;;;;21.17;12.68;;;;;;;7.63;100.00;99963.44;7399850;19;20010;-70
2022/12/23 11:33:26;;;;;;;18.80;12.90;;;;;;;7.56;100.00;99970.53;7401974;19;20015;-71
2022/12/23 11:36:03;;;;;;;20.60;14.25;;;;;;;7.55;100.00;99966.22;7398467;19;20019;-71
2022/12/23 11:38:32;;;;;;;18.80;13.10;;;;;;;7.54;100.00;99967.09;7400285;19;20014;-72
2022/12/23 11:41:01;;;;;;;20.60;13.13;;;;;;;7.53;100.00;99969.75;7396961;19;20074;-72
2022/12/23 11:43:30;;;;;;;17.67;12.50;;;;;;;7.52;100.00;99976.72;7397950;19;20014;-70
2022/12/23 11:46:25;;;;;;;17.52;11.93;;;;;;;7.47;100.00;99975.97;7398528;19;20022;-71
2022/12/23 11:49:09;;;;;;;18.13;12.35;;;;;;;7.46;100.00;99976.84;7398525;19;20514;-71
2022/12/23 11:51:37;;;;;;;17.67;12.00;;;;;;;7.47;100.00;99978.56;7397167;19;20074;-71
2022/12/23 11:54:06;;;;;;;19.17;12.90;;;;;;;7.48;100.00;99980.28;7399571;19;20019;-72
2022/12/23 11:56:39;;;;;;;19.88;13.32;;;;;;;7.49;100.00;99988.09;7396463;19;20599;-73
2022/12/23 11:59:09;;;;;;;21.08;13.57;;;;;;;7.52;100.00;99992.38;7396487;19;20074;-71
2022/12/23 12:01:39;;;;;;;22.90;14.48;;;;;;;7.53;100.00;99988.00;7397929;19;20426;-72
2022/12/23 12:04:20;;;;;;;18.25;12.52;;;;;;;7.58;100.00;99989.66;7398887;19;20032;-71
2022/12/23 12:06:50;;;;;;;19.15;13.13;;;;;;;7.57;100.00;99994.88;7396399;19;20086;-71
2022/12/23 12:09:20;;;;;;;19.42;13.15;;;;;;;7.51;100.00;99995.88;7397648;19;20022;-71